sensor_id;sensor_type;location;lat;lon;timestamp;pressure;altitude;pressure_sealevel;temperature
68911;BMP180;55953;51.650;-0.522;2022-07-05T00:01:40;101429.00;;;14.22
68911;BMP180;55953;51.650;-0.522;2022-07-05T00:04:07;101437.20;;;14.20
68911;BMP180;55953;51.650;-0.522;2022-07-05T00:06:35;101436.20;;;14.20
68911;BMP180;55953;51.650;-0.522;2022-07-05T00:09:03;101437.20;;;14.20
68911;BMP180;55953;51.650;-0.522;2022-07-05T00:11:31;101433.80;;;14.18
68911;BMP180;55953;51.650;-0.522;2022-07-05T00:13:58;101433.40;;;14.10
68911;BMP180;55953;51.650;-0.522;2022-07-05T00:16:26;101429.40;;;14.10
68911;BMP180;55953;51.650;-0.522;2022-07-05T00:18:54;101434.00;;;14.10
68911;BMP180;55953;51.650;-0.522;2022-07-05T00:21:21;101432.40;;;14.06
68911;BMP180;55953;51.650;-0.522;2022-07-05T00:23:49;101433.60;;;14.10
68911;BMP180;55953;51.650;-0.522;2022-07-05T00:26:17;101437.20;;;14.00
68911;BMP180;55953;51.650;-0.522;2022-07-05T00:28:44;101437.00;;;14.00
68911;BMP180;55953;51.650;-0.522;2022-07-05T00:31:12;101436.40;;;14.00
68911;BMP180;55953;51.650;-0.522;2022-07-05T00:33:40;101436.40;;;14.00
68911;BMP180;55953;51.650;-0.522;2022-07-05T00:36:08;101439.20;;;14.00
68911;BMP180;55953;51.650;-0.522;2022-07-05T00:38:36;101437.20;;;13.90
68911;BMP180;55953;51.650;-0.522;2022-07-05T00:41:04;101438.80;;;13.90
68911;BMP180;55953;51.650;-0.522;2022-07-05T00:43:32;101442.00;;;13.82
68911;BMP180;55953;51.650;-0.522;2022-07-05T00:46:00;101446.60;;;13.80
68911;BMP180;55953;51.650;-0.522;2022-07-05T00:48:28;101443.80;;;13.80
68911;BMP180;55953;51.650;-0.522;2022-07-05T00:50:55;101444.80;;;13.70
68911;BMP180;55953;51.650;-0.522;2022-07-05T00:53:23;101443.40;;;13.70
68911;BMP180;55953;51.650;-0.522;2022-07-05T00:55:51;101449.20;;;13.64
68911;BMP180;55953;51.650;-0.522;2022-07-05T00:58:19;101447.80;;;13.60
68911;BMP180;55953;51.650;-0.522;2022-07-05T01:00:46;101447.80;;;13.60
68911;BMP180;55953;51.650;-0.522;2022-07-05T01:03:14;101444.40;;;13.60
68911;BMP180;55953;51.650;-0.522;2022-07-05T01:05:42;101441.00;;;13.60
68911;BMP180;55953;51.650;-0.522;2022-07-05T01:08:11;101435.20;;;13.60
68911;BMP180;55953;51.650;-0.522;2022-07-05T01:10:41;101431.60;;;13.50
68911;BMP180;55953;51.650;-0.522;2022-07-05T01:13:09;101429.80;;;13.50
68911;BMP180;55953;51.650;-0.522;2022-07-05T01:15:38;101430.80;;;13.46
68911;BMP180;55953;51.650;-0.522;2022-07-05T01:18:07;101433.00;;;13.40
68911;BMP180;55953;51.650;-0.522;2022-07-05T01:20:36;101434.00;;;13.40
68911;BMP180;55953;51.650;-0.522;2022-07-05T01:23:04;101432.00;;;13.40
68911;BMP180;55953;51.650;-0.522;2022-07-05T01:25:32;101435.60;;;13.30
68911;BMP180;55953;51.650;-0.522;2022-07-05T01:28:03;101444.00;;;13.30
68911;BMP180;55953;51.650;-0.522;2022-07-05T01:30:34;101436.40;;;13.30
68911;BMP180;55953;51.650;-0.522;2022-07-05T01:33:05;101438.20;;;13.30
68911;BMP180;55953;51.650;-0.522;2022-07-05T01:35:54;101440.80;;;13.20
68911;BMP180;55953;51.650;-0.522;2022-07-05T01:38:22;101438.80;;;13.12
68911;BMP180;55953;51.650;-0.522;2022-07-05T01:40:50;101440.40;;;13.10
68911;BMP180;55953;51.650;-0.522;2022-07-05T01:43:21;101438.40;;;13.00
68911;BMP180;55953;51.650;-0.522;2022-07-05T01:45:49;101442.60;;;13.00
68911;BMP180;55953;51.650;-0.522;2022-07-05T01:48:19;101448.60;;;13.00
68911;BMP180;55953;51.650;-0.522;2022-07-05T01:50:57;101441.60;;;12.92
68911;BMP180;55953;51.650;-0.522;2022-07-05T01:53:31;101444.80;;;12.90
68911;BMP180;55953;51.650;-0.522;2022-07-05T01:56:01;101444.20;;;12.90
68911;BMP180;55953;51.650;-0.522;2022-07-05T01:58:31;101443.80;;;12.92
68911;BMP180;55953;51.650;-0.522;2022-07-05T02:00:59;101442.60;;;12.90
68911;BMP180;55953;51.650;-0.522;2022-07-05T02:03:27;101445.60;;;12.96
68911;BMP180;55953;51.650;-0.522;2022-07-05T02:06:15;101443.40;;;12.90
68911;BMP180;55953;51.650;-0.522;2022-07-05T02:08:43;101444.20;;;12.80
68911;BMP180;55953;51.650;-0.522;2022-07-05T02:11:10;101448.20;;;12.80
68911;BMP180;55953;51.650;-0.522;2022-07-05T02:13:38;101450.80;;;12.70
68911;BMP180;55953;51.650;-0.522;2022-07-05T02:16:06;101453.00;;;12.70
68911;BMP180;55953;51.650;-0.522;2022-07-05T02:18:34;101446.20;;;12.70
68911;BMP180;55953;51.650;-0.522;2022-07-05T02:21:03;101454.00;;;12.60
68911;BMP180;55953;51.650;-0.522;2022-07-05T02:23:31;101448.60;;;12.56
68911;BMP180;55953;51.650;-0.522;2022-07-05T02:25:59;101452.20;;;12.58
68911;BMP180;55953;51.650;-0.522;2022-07-05T02:28:27;101449.80;;;12.52
68911;BMP180;55953;51.650;-0.522;2022-07-05T02:30:55;101445.20;;;12.50
68911;BMP180;55953;51.650;-0.522;2022-07-05T02:33:22;101446.00;;;12.50
68911;BMP180;55953;51.650;-0.522;2022-07-05T02:35:50;101445.60;;;12.50
68911;BMP180;55953;51.650;-0.522;2022-07-05T02:38:18;101446.00;;;12.40
68911;BMP180;55953;51.650;-0.522;2022-07-05T02:40:46;101445.20;;;12.40
68911;BMP180;55953;51.650;-0.522;2022-07-05T02:43:14;101444.60;;;12.40
68911;BMP180;55953;51.650;-0.522;2022-07-05T02:45:42;101442.60;;;12.40
68911;BMP180;55953;51.650;-0.522;2022-07-05T02:48:11;101444.20;;;12.30
68911;BMP180;55953;51.650;-0.522;2022-07-05T02:50:38;101438.80;;;12.30
68911;BMP180;55953;51.650;-0.522;2022-07-05T02:53:06;101439.80;;;12.20
68911;BMP180;55953;51.650;-0.522;2022-07-05T02:55:34;101439.40;;;12.20
68911;BMP180;55953;51.650;-0.522;2022-07-05T02:58:02;101441.00;;;12.20
68911;BMP180;55953;51.650;-0.522;2022-07-05T03:00:31;101444.00;;;12.20
68911;BMP180;55953;51.650;-0.522;2022-07-05T03:02:59;101443.00;;;12.14
68911;BMP180;55953;51.650;-0.522;2022-07-05T03:05:27;101440.00;;;12.10
68911;BMP180;55953;51.650;-0.522;2022-07-05T03:07:58;101440.80;;;12.08
68911;BMP180;55953;51.650;-0.522;2022-07-05T03:10:26;101437.80;;;12.00
68911;BMP180;55953;51.650;-0.522;2022-07-05T03:12:55;101444.20;;;12.00
68911;BMP180;55953;51.650;-0.522;2022-07-05T03:15:22;101443.80;;;12.02
68911;BMP180;55953;51.650;-0.522;2022-07-05T03:17:50;101443.20;;;12.00
68911;BMP180;55953;51.650;-0.522;2022-07-05T03:20:19;101442.20;;;12.00
68911;BMP180;55953;51.650;-0.522;2022-07-05T03:22:46;101443.80;;;12.00
68911;BMP180;55953;51.650;-0.522;2022-07-05T03:25:14;101449.20;;;11.92
68911;BMP180;55953;51.650;-0.522;2022-07-05T03:27:42;101447.40;;;11.90
68911;BMP180;55953;51.650;-0.522;2022-07-05T03:30:11;101447.20;;;11.90
68911;BMP180;55953;51.650;-0.522;2022-07-05T03:32:39;101445.20;;;11.90
68911;BMP180;55953;51.650;-0.522;2022-07-05T03:35:08;101450.00;;;11.90
68911;BMP180;55953;51.650;-0.522;2022-07-05T03:37:36;101448.60;;;11.90
68911;BMP180;55953;51.650;-0.522;2022-07-05T03:40:05;101448.00;;;11.94
68911;BMP180;55953;51.650;-0.522;2022-07-05T03:42:33;101450.80;;;11.96
68911;BMP180;55953;51.650;-0.522;2022-07-05T03:45:04;101452.00;;;12.00
68911;BMP180;55953;51.650;-0.522;2022-07-05T03:47:33;101451.60;;;12.00
68911;BMP180;55953;51.650;-0.522;2022-07-05T03:50:01;101456.00;;;12.00
68911;BMP180;55953;51.650;-0.522;2022-07-05T03:52:29;101458.00;;;11.90
68911;BMP180;55953;51.650;-0.522;2022-07-05T03:54:58;101460.00;;;11.80
68911;BMP180;55953;51.650;-0.522;2022-07-05T03:57:26;101457.40;;;11.70
68911;BMP180;55953;51.650;-0.522;2022-07-05T03:59:54;101465.20;;;11.70
68911;BMP180;55953;51.650;-0.522;2022-07-05T04:02:22;101464.40;;;11.80
68911;BMP180;55953;51.650;-0.522;2022-07-05T04:04:49;101465.80;;;11.70
68911;BMP180;55953;51.650;-0.522;2022-07-05T04:07:18;101469.20;;;11.70
68911;BMP180;55953;51.650;-0.522;2022-07-05T04:09:46;101465.00;;;11.70
68911;BMP180;55953;51.650;-0.522;2022-07-05T04:12:14;101461.60;;;11.64
68911;BMP180;55953;51.650;-0.522;2022-07-05T04:14:42;101462.00;;;11.60
68911;BMP180;55953;51.650;-0.522;2022-07-05T04:17:10;101466.00;;;11.42
68911;BMP180;55953;51.650;-0.522;2022-07-05T04:19:38;101463.40;;;11.40
68911;BMP180;55953;51.650;-0.522;2022-07-05T04:22:06;101466.20;;;11.40
68911;BMP180;55953;51.650;-0.522;2022-07-05T04:24:34;101470.20;;;11.50
68911;BMP180;55953;51.650;-0.522;2022-07-05T04:27:24;101468.80;;;11.50
68911;BMP180;55953;51.650;-0.522;2022-07-05T04:29:52;101474.40;;;11.48
68911;BMP180;55953;51.650;-0.522;2022-07-05T04:32:20;101469.60;;;11.40
68911;BMP180;55953;51.650;-0.522;2022-07-05T04:34:48;101470.60;;;11.40
68911;BMP180;55953;51.650;-0.522;2022-07-05T04:37:15;101470.00;;;11.44
68911;BMP180;55953;51.650;-0.522;2022-07-05T04:39:43;101477.20;;;11.50
68911;BMP180;55953;51.650;-0.522;2022-07-05T04:42:11;101484.60;;;11.50
68911;BMP180;55953;51.650;-0.522;2022-07-05T04:44:39;101486.20;;;11.60
68911;BMP180;55953;51.650;-0.522;2022-07-05T04:47:07;101489.40;;;11.70
68911;BMP180;55953;51.650;-0.522;2022-07-05T04:49:36;101489.60;;;11.70
68911;BMP180;55953;51.650;-0.522;2022-07-05T04:52:04;101488.80;;;11.80
68911;BMP180;55953;51.650;-0.522;2022-07-05T04:54:33;101489.80;;;11.80
68911;BMP180;55953;51.650;-0.522;2022-07-05T04:57:00;101496.00;;;11.90
68911;BMP180;55953;51.650;-0.522;2022-07-05T04:59:29;101503.20;;;11.90
68911;BMP180;55953;51.650;-0.522;2022-07-05T05:01:56;101498.40;;;12.00
68911;BMP180;55953;51.650;-0.522;2022-07-05T05:04:24;101499.40;;;12.10
68911;BMP180;55953;51.650;-0.522;2022-07-05T05:06:52;101498.00;;;12.10
68911;BMP180;55953;51.650;-0.522;2022-07-05T05:09:20;101498.00;;;12.18
68911;BMP180;55953;51.650;-0.522;2022-07-05T05:11:48;101493.40;;;12.20
68911;BMP180;55953;51.650;-0.522;2022-07-05T05:14:16;101497.00;;;12.30
68911;BMP180;55953;51.650;-0.522;2022-07-05T05:16:44;101502.60;;;12.40
68911;BMP180;55953;51.650;-0.522;2022-07-05T05:19:11;101510.40;;;12.50
68911;BMP180;55953;51.650;-0.522;2022-07-05T05:21:39;101511.20;;;12.58
68911;BMP180;55953;51.650;-0.522;2022-07-05T05:24:07;101507.20;;;12.60
68911;BMP180;55953;51.650;-0.522;2022-07-05T05:26:35;101516.20;;;12.70
68911;BMP180;55953;51.650;-0.522;2022-07-05T05:29:02;101513.80;;;12.80
68911;BMP180;55953;51.650;-0.522;2022-07-05T05:31:31;101514.40;;;12.80
68911;BMP180;55953;51.650;-0.522;2022-07-05T05:33:59;101518.60;;;12.90
68911;BMP180;55953;51.650;-0.522;2022-07-05T05:36:26;101522.20;;;13.00
68911;BMP180;55953;51.650;-0.522;2022-07-05T05:38:54;101523.40;;;13.10
68911;BMP180;55953;51.650;-0.522;2022-07-05T05:41:22;101522.00;;;13.20
68911;BMP180;55953;51.650;-0.522;2022-07-05T05:43:50;101520.40;;;13.28
68911;BMP180;55953;51.650;-0.522;2022-07-05T05:46:17;101514.20;;;13.32
68911;BMP180;55953;51.650;-0.522;2022-07-05T05:48:45;101519.00;;;13.40
68911;BMP180;55953;51.650;-0.522;2022-07-05T05:51:13;101512.80;;;13.50
68911;BMP180;55953;51.650;-0.522;2022-07-05T05:53:41;101517.20;;;13.56
68911;BMP180;55953;51.650;-0.522;2022-07-05T05:56:09;101515.00;;;13.60
68911;BMP180;55953;51.650;-0.522;2022-07-05T05:58:36;101517.00;;;13.72
68911;BMP180;55953;51.650;-0.522;2022-07-05T06:01:10;101524.80;;;13.80
68911;BMP180;55953;51.650;-0.522;2022-07-05T06:03:38;101529.80;;;13.90
68911;BMP180;55953;51.650;-0.522;2022-07-05T06:06:05;101537.40;;;14.00
68911;BMP180;55953;51.650;-0.522;2022-07-05T06:08:33;101537.00;;;14.10
68911;BMP180;55953;51.650;-0.522;2022-07-05T06:11:01;101539.80;;;14.20
68911;BMP180;55953;51.650;-0.522;2022-07-05T06:13:31;101539.00;;;14.22
68911;BMP180;55953;51.650;-0.522;2022-07-05T06:15:59;101542.60;;;14.30
68911;BMP180;55953;51.650;-0.522;2022-07-05T06:18:27;101545.80;;;14.40
68911;BMP180;55953;51.650;-0.522;2022-07-05T06:20:54;101550.00;;;14.50
68911;BMP180;55953;51.650;-0.522;2022-07-05T06:23:22;101545.00;;;14.56
68911;BMP180;55953;51.650;-0.522;2022-07-05T06:25:50;101549.80;;;14.60
68911;BMP180;55953;51.650;-0.522;2022-07-05T06:28:18;101549.60;;;14.70
68911;BMP180;55953;51.650;-0.522;2022-07-05T06:30:45;101551.80;;;14.80
68911;BMP180;55953;51.650;-0.522;2022-07-05T06:33:13;101547.00;;;14.86
68911;BMP180;55953;51.650;-0.522;2022-07-05T06:35:41;101554.20;;;14.90
68911;BMP180;55953;51.650;-0.522;2022-07-05T06:38:09;101555.60;;;15.00
68911;BMP180;55953;51.650;-0.522;2022-07-05T06:40:40;101557.40;;;15.10
68911;BMP180;55953;51.650;-0.522;2022-07-05T06:43:12;101562.40;;;15.14
68911;BMP180;55953;51.650;-0.522;2022-07-05T06:45:52;101561.60;;;15.20
68911;BMP180;55953;51.650;-0.522;2022-07-05T06:48:20;101559.40;;;15.20
68911;BMP180;55953;51.650;-0.522;2022-07-05T06:50:48;101558.80;;;15.30
68911;BMP180;55953;51.650;-0.522;2022-07-05T06:53:15;101557.60;;;15.40
68911;BMP180;55953;51.650;-0.522;2022-07-05T06:55:43;101562.60;;;15.50
68911;BMP180;55953;51.650;-0.522;2022-07-05T06:58:23;101556.80;;;15.60
68911;BMP180;55953;51.650;-0.522;2022-07-05T07:00:51;101562.60;;;15.60
68911;BMP180;55953;51.650;-0.522;2022-07-05T07:03:39;101566.80;;;15.70
68911;BMP180;55953;51.650;-0.522;2022-07-05T07:06:26;101565.60;;;15.80
68911;BMP180;55953;51.650;-0.522;2022-07-05T07:08:55;101559.60;;;15.90
68911;BMP180;55953;51.650;-0.522;2022-07-05T07:11:41;101561.20;;;16.00
68911;BMP180;55953;51.650;-0.522;2022-07-05T07:14:09;101565.60;;;16.10
68911;BMP180;55953;51.650;-0.522;2022-07-05T07:16:37;101566.00;;;16.10
68911;BMP180;55953;51.650;-0.522;2022-07-05T07:19:05;101575.00;;;16.20
68911;BMP180;55953;51.650;-0.522;2022-07-05T07:21:40;101573.80;;;16.20
68911;BMP180;55953;51.650;-0.522;2022-07-05T07:24:09;101572.00;;;16.30
68911;BMP180;55953;51.650;-0.522;2022-07-05T07:26:38;101582.60;;;16.40
68911;BMP180;55953;51.650;-0.522;2022-07-05T07:29:24;101576.40;;;16.40
68911;BMP180;55953;51.650;-0.522;2022-07-05T07:31:52;101577.80;;;16.50
68911;BMP180;55953;51.650;-0.522;2022-07-05T07:34:20;101580.00;;;16.60
68911;BMP180;55953;51.650;-0.522;2022-07-05T07:36:49;101578.20;;;16.68
68911;BMP180;55953;51.650;-0.522;2022-07-05T07:39:17;101577.80;;;16.70
68911;BMP180;55953;51.650;-0.522;2022-07-05T07:41:45;101584.60;;;16.70
68911;BMP180;55953;51.650;-0.522;2022-07-05T07:44:13;101582.00;;;16.80
68911;BMP180;55953;51.650;-0.522;2022-07-05T07:46:41;101582.20;;;16.88
68911;BMP180;55953;51.650;-0.522;2022-07-05T07:49:09;101581.60;;;17.00
68911;BMP180;55953;51.650;-0.522;2022-07-05T07:51:37;101579.80;;;17.20
68911;BMP180;55953;51.650;-0.522;2022-07-05T07:54:05;101581.20;;;17.32
68911;BMP180;55953;51.650;-0.522;2022-07-05T07:56:34;101584.20;;;17.44
68911;BMP180;55953;51.650;-0.522;2022-07-05T07:59:01;101582.00;;;17.60
68911;BMP180;55953;51.650;-0.522;2022-07-05T08:01:29;101584.20;;;17.72
68911;BMP180;55953;51.650;-0.522;2022-07-05T08:03:58;101581.80;;;17.88
68911;BMP180;55953;51.650;-0.522;2022-07-05T08:06:26;101579.40;;;18.00
68911;BMP180;55953;51.650;-0.522;2022-07-05T08:08:54;101590.00;;;18.20
68911;BMP180;55953;51.650;-0.522;2022-07-05T08:11:22;101589.20;;;18.20
68911;BMP180;55953;51.650;-0.522;2022-07-05T08:13:50;101593.00;;;18.20
68911;BMP180;55953;51.650;-0.522;2022-07-05T08:16:18;101590.80;;;18.40
68911;BMP180;55953;51.650;-0.522;2022-07-05T08:18:46;101584.40;;;18.50
68911;BMP180;55953;51.650;-0.522;2022-07-05T08:21:34;101581.80;;;18.90
68911;BMP180;55953;51.650;-0.522;2022-07-05T08:24:11;101576.20;;;19.16
68911;BMP180;55953;51.650;-0.522;2022-07-05T08:26:40;101585.60;;;19.28
68911;BMP180;55953;51.650;-0.522;2022-07-05T08:29:12;101584.20;;;19.20
68911;BMP180;55953;51.650;-0.522;2022-07-05T08:31:50;101573.00;;;19.32
68911;BMP180;55953;51.650;-0.522;2022-07-05T08:34:19;101579.00;;;19.42
68911;BMP180;55953;51.650;-0.522;2022-07-05T08:36:47;101579.40;;;19.50
68911;BMP180;55953;51.650;-0.522;2022-07-05T08:39:17;101583.80;;;19.70
68911;BMP180;55953;51.650;-0.522;2022-07-05T08:41:50;101590.20;;;19.80
68911;BMP180;55953;51.650;-0.522;2022-07-05T08:44:20;101586.40;;;19.98
68911;BMP180;55953;51.650;-0.522;2022-07-05T08:46:50;101586.80;;;20.20
68911;BMP180;55953;51.650;-0.522;2022-07-05T08:49:25;101593.40;;;20.28
68911;BMP180;55953;51.650;-0.522;2022-07-05T08:51:55;101586.40;;;20.20
68911;BMP180;55953;51.650;-0.522;2022-07-05T08:54:24;101584.40;;;20.20
68911;BMP180;55953;51.650;-0.522;2022-07-05T08:56:52;101584.80;;;19.90
68911;BMP180;55953;51.650;-0.522;2022-07-05T08:59:38;101585.20;;;19.70
68911;BMP180;55953;51.650;-0.522;2022-07-05T09:02:11;101584.20;;;19.80
68911;BMP180;55953;51.650;-0.522;2022-07-05T09:04:45;101586.40;;;20.00
68911;BMP180;55953;51.650;-0.522;2022-07-05T09:07:16;101581.80;;;20.06
68911;BMP180;55953;51.650;-0.522;2022-07-05T09:09:48;101586.80;;;19.94
68911;BMP180;55953;51.650;-0.522;2022-07-05T09:12:17;101584.60;;;19.90
68911;BMP180;55953;51.650;-0.522;2022-07-05T09:14:50;101585.00;;;19.80
68911;BMP180;55953;51.650;-0.522;2022-07-05T09:17:18;101592.20;;;19.70
68911;BMP180;55953;51.650;-0.522;2022-07-05T09:20:26;101590.60;;;19.50
68911;BMP180;55953;51.650;-0.522;2022-07-05T09:22:56;101599.00;;;19.60
68911;BMP180;55953;51.650;-0.522;2022-07-05T09:25:30;101595.20;;;19.62
68911;BMP180;55953;51.650;-0.522;2022-07-05T09:28:02;101597.00;;;19.56
68911;BMP180;55953;51.650;-0.522;2022-07-05T09:30:37;101609.40;;;19.50
68911;BMP180;55953;51.650;-0.522;2022-07-05T09:33:15;101602.80;;;19.60
68911;BMP180;55953;51.650;-0.522;2022-07-05T09:35:52;101604.60;;;19.70
68911;BMP180;55953;51.650;-0.522;2022-07-05T09:38:28;101598.60;;;19.70
68911;BMP180;55953;51.650;-0.522;2022-07-05T09:40:58;101608.60;;;19.80
68911;BMP180;55953;51.650;-0.522;2022-07-05T09:43:29;101597.20;;;19.80
68911;BMP180;55953;51.650;-0.522;2022-07-05T09:46:02;101603.40;;;19.70
68911;BMP180;55953;51.650;-0.522;2022-07-05T09:48:32;101604.40;;;19.54
68911;BMP180;55953;51.650;-0.522;2022-07-05T09:51:10;101598.40;;;19.70
68911;BMP180;55953;51.650;-0.522;2022-07-05T09:54:00;101606.00;;;19.90
68911;BMP180;55953;51.650;-0.522;2022-07-05T09:56:48;101599.60;;;19.94
68911;BMP180;55953;51.650;-0.522;2022-07-05T09:59:19;101604.80;;;20.10
68911;BMP180;55953;51.650;-0.522;2022-07-05T10:01:49;101600.80;;;20.10
68911;BMP180;55953;51.650;-0.522;2022-07-05T10:04:18;101613.00;;;20.20
68911;BMP180;55953;51.650;-0.522;2022-07-05T10:06:46;101616.20;;;20.00
68911;BMP180;55953;51.650;-0.522;2022-07-05T10:09:14;101612.80;;;19.90
68911;BMP180;55953;51.650;-0.522;2022-07-05T10:11:45;101614.40;;;19.94
68911;BMP180;55953;51.650;-0.522;2022-07-05T10:14:19;101622.00;;;20.00
68911;BMP180;55953;51.650;-0.522;2022-07-05T10:16:57;101625.60;;;20.00
68911;BMP180;55953;51.650;-0.522;2022-07-05T10:19:32;101622.40;;;20.06
68911;BMP180;55953;51.650;-0.522;2022-07-05T10:22:02;101614.40;;;20.24
68911;BMP180;55953;51.650;-0.522;2022-07-05T10:24:47;101615.00;;;20.20
68911;BMP180;55953;51.650;-0.522;2022-07-05T10:27:18;101615.00;;;20.30
68911;BMP180;55953;51.650;-0.522;2022-07-05T10:29:49;101612.20;;;20.40
68911;BMP180;55953;51.650;-0.522;2022-07-05T10:32:18;101610.40;;;20.40
68911;BMP180;55953;51.650;-0.522;2022-07-05T10:34:47;101621.00;;;20.50
68911;BMP180;55953;51.650;-0.522;2022-07-05T10:37:33;101620.40;;;20.76
68911;BMP180;55953;51.650;-0.522;2022-07-05T10:40:05;101611.00;;;20.80
68911;BMP180;55953;51.650;-0.522;2022-07-05T10:42:48;101603.00;;;20.80
68911;BMP180;55953;51.650;-0.522;2022-07-05T10:45:48;101601.40;;;20.82
68911;BMP180;55953;51.650;-0.522;2022-07-05T10:48:25;101602.40;;;21.00
68911;BMP180;55953;51.650;-0.522;2022-07-05T10:54:00;101609.80;;;21.40
68911;BMP180;55953;51.650;-0.522;2022-07-05T10:56:17;101605.00;;;21.42
68911;BMP180;55953;51.650;-0.522;2022-07-05T10:58:46;101607.20;;;21.40
68911;BMP180;55953;51.650;-0.522;2022-07-05T11:01:46;101608.80;;;21.40
68911;BMP180;55953;51.650;-0.522;2022-07-05T11:04:24;101618.80;;;21.50
68911;BMP180;55953;51.650;-0.522;2022-07-05T11:06:54;101599.20;;;21.60
68911;BMP180;55953;51.650;-0.522;2022-07-05T11:09:22;101611.20;;;21.70
68911;BMP180;55953;51.650;-0.522;2022-07-05T11:14:45;101598.20;;;21.60
68911;BMP180;55953;51.650;-0.522;2022-07-05T11:17:20;101595.60;;;21.80
68911;BMP180;55953;51.650;-0.522;2022-07-05T11:20:26;101604.80;;;21.92
68911;BMP180;55953;51.650;-0.522;2022-07-05T11:23:10;101605.20;;;21.90
68911;BMP180;55953;51.650;-0.522;2022-07-05T11:25:46;101594.40;;;21.90
68911;BMP180;55953;51.650;-0.522;2022-07-05T11:28:21;101591.40;;;21.76
68911;BMP180;55953;51.650;-0.522;2022-07-05T11:30:58;101596.20;;;21.70
68911;BMP180;55953;51.650;-0.522;2022-07-05T11:33:42;101591.80;;;22.00
68911;BMP180;55953;51.650;-0.522;2022-07-05T11:36:25;101597.80;;;22.16
68911;BMP180;55953;51.650;-0.522;2022-07-05T11:39:13;101598.60;;;22.24
68911;BMP180;55953;51.650;-0.522;2022-07-05T11:41:46;101594.20;;;22.40
68911;BMP180;55953;51.650;-0.522;2022-07-05T11:44:15;101603.20;;;22.46
68911;BMP180;55953;51.650;-0.522;2022-07-05T11:46:44;101599.60;;;22.62
68911;BMP180;55953;51.650;-0.522;2022-07-05T11:49:21;101600.40;;;23.00
68911;BMP180;55953;51.650;-0.522;2022-07-05T11:51:58;101606.40;;;23.26
68911;BMP180;55953;51.650;-0.522;2022-07-05T11:54:29;101604.00;;;23.30
68911;BMP180;55953;51.650;-0.522;2022-07-05T11:56:59;101604.80;;;23.40
68911;BMP180;55953;51.650;-0.522;2022-07-05T11:59:27;101609.80;;;23.40
68911;BMP180;55953;51.650;-0.522;2022-07-05T12:01:56;101610.20;;;23.30
68911;BMP180;55953;51.650;-0.522;2022-07-05T12:04:29;101605.40;;;23.10
68911;BMP180;55953;51.650;-0.522;2022-07-05T12:06:58;101600.40;;;22.70
68911;BMP180;55953;51.650;-0.522;2022-07-05T12:09:29;101601.20;;;22.70
68911;BMP180;55953;51.650;-0.522;2022-07-05T12:12:21;101610.20;;;22.80
68911;BMP180;55953;51.650;-0.522;2022-07-05T12:17:43;101616.40;;;22.80
68911;BMP180;55953;51.650;-0.522;2022-07-05T12:20:15;101605.20;;;22.70
68911;BMP180;55953;51.650;-0.522;2022-07-05T12:22:44;101598.80;;;22.66
68911;BMP180;55953;51.650;-0.522;2022-07-05T12:25:17;101599.40;;;22.60
68911;BMP180;55953;51.650;-0.522;2022-07-05T12:27:47;101605.60;;;22.48
68911;BMP180;55953;51.650;-0.522;2022-07-05T12:30:16;101613.20;;;22.16
68911;BMP180;55953;51.650;-0.522;2022-07-05T12:33:05;101601.60;;;21.90
68911;BMP180;55953;51.650;-0.522;2022-07-05T12:38:13;101598.60;;;22.50
68911;BMP180;55953;51.650;-0.522;2022-07-05T12:40:49;101596.40;;;22.70
68911;BMP180;55953;51.650;-0.522;2022-07-05T12:43:24;101595.60;;;22.60
68911;BMP180;55953;51.650;-0.522;2022-07-05T12:46:03;101605.40;;;22.50
68911;BMP180;55953;51.650;-0.522;2022-07-05T12:48:39;101607.20;;;22.90
68911;BMP180;55953;51.650;-0.522;2022-07-05T12:51:10;101605.00;;;22.90
68911;BMP180;55953;51.650;-0.522;2022-07-05T12:53:49;101604.00;;;22.66
68911;BMP180;55953;51.650;-0.522;2022-07-05T12:56:36;101606.20;;;22.44
68911;BMP180;55953;51.650;-0.522;2022-07-05T13:00:08;101596.80;;;22.50
68911;BMP180;55953;51.650;-0.522;2022-07-05T13:02:40;101596.00;;;22.50
68911;BMP180;55953;51.650;-0.522;2022-07-05T13:05:24;101599.80;;;22.50
68911;BMP180;55953;51.650;-0.522;2022-07-05T13:07:52;101599.80;;;22.50
68911;BMP180;55953;51.650;-0.522;2022-07-05T13:10:28;101598.40;;;22.60
68911;BMP180;55953;51.650;-0.522;2022-07-05T13:13:07;101606.20;;;22.70
68911;BMP180;55953;51.650;-0.522;2022-07-05T13:15:36;101593.20;;;22.94
68911;BMP180;55953;51.650;-0.522;2022-07-05T13:18:07;101592.60;;;23.20
68911;BMP180;55953;51.650;-0.522;2022-07-05T13:20:35;101598.40;;;23.10
68911;BMP180;55953;51.650;-0.522;2022-07-05T13:23:03;101603.40;;;23.06
68911;BMP180;55953;51.650;-0.522;2022-07-05T13:25:30;101610.00;;;22.80
68911;BMP180;55953;51.650;-0.522;2022-07-05T13:27:58;101606.40;;;22.70
68911;BMP180;55953;51.650;-0.522;2022-07-05T13:30:26;101607.60;;;22.70
68911;BMP180;55953;51.650;-0.522;2022-07-05T13:32:54;101610.20;;;22.70
68911;BMP180;55953;51.650;-0.522;2022-07-05T13:35:21;101617.00;;;22.72
68911;BMP180;55953;51.650;-0.522;2022-07-05T13:37:49;101612.80;;;22.70
68911;BMP180;55953;51.650;-0.522;2022-07-05T13:40:17;101616.00;;;22.60
68911;BMP180;55953;51.650;-0.522;2022-07-05T13:42:44;101616.20;;;22.70
68911;BMP180;55953;51.650;-0.522;2022-07-05T13:45:12;101615.20;;;22.68
68911;BMP180;55953;51.650;-0.522;2022-07-05T13:47:41;101615.40;;;22.50
68911;BMP180;55953;51.650;-0.522;2022-07-05T13:50:26;101609.20;;;22.30
68911;BMP180;55953;51.650;-0.522;2022-07-05T13:53:01;101616.60;;;22.40
68911;BMP180;55953;51.650;-0.522;2022-07-05T13:55:29;101619.40;;;22.34
68911;BMP180;55953;51.650;-0.522;2022-07-05T13:57:57;101619.60;;;22.30
68911;BMP180;55953;51.650;-0.522;2022-07-05T14:00:25;101620.20;;;22.40
68911;BMP180;55953;51.650;-0.522;2022-07-05T14:02:53;101610.40;;;22.30
68911;BMP180;55953;51.650;-0.522;2022-07-05T14:05:21;101611.80;;;22.48
68911;BMP180;55953;51.650;-0.522;2022-07-05T14:07:48;101607.80;;;22.90
68911;BMP180;55953;51.650;-0.522;2022-07-05T14:10:16;101619.40;;;23.00
68911;BMP180;55953;51.650;-0.522;2022-07-05T14:12:44;101615.20;;;22.80
68911;BMP180;55953;51.650;-0.522;2022-07-05T14:15:12;101618.20;;;22.70
68911;BMP180;55953;51.650;-0.522;2022-07-05T14:17:39;101624.00;;;22.60